Time;durP1;ratioP1;P1;durP2;ratioP2;P2;SDS_P1;SDS_P2;PMS_P1;PMS_P2;Temp;Humidity;BMP_temperature;BMP_pressure;BME280_temperature;BME280_humidity;BME280_pressure;Samples;Min_cycle;Max_cycle;Signal;HPM_P1;HPM_P2
2021/09/06 00:00:50;;;;;;;5.22;2.70;;;;;;;4.11;98.54;101180.09;1738824;80;21583;-77
2021/09/06 00:03:16;;;;;;;6.60;2.10;;;;;;;4.07;98.69;101179.63;1747767;80;21031;-77
2021/09/06 00:05:45;;;;;;;4.55;2.50;;;;;;;4.04;98.70;101188.74;1758228;80;21029;-77
2021/09/06 00:08:11;;;;;;;3.20;1.85;;;;;;;4.03;99.07;101189.63;1732537;82;21048;-77
2021/09/06 00:10:46;;;;;;;4.35;2.60;;;;;;;4.02;99.20;101187.86;1750856;80;21130;-76
2021/09/06 00:13:16;;;;;;;6.60;2.67;;;;;;;4.01;99.34;101183.52;1754144;80;21228;-77
2021/09/06 00:15:43;;;;;;;5.30;2.40;;;;;;;3.96;99.21;101186.96;1759376;80;25230;-77
2021/09/06 00:18:11;;;;;;;7.55;2.52;;;;;;;3.91;99.09;101187.77;1762726;80;21093;-77
2021/09/06 00:20:39;;;;;;;9.15;2.75;;;;;;;3.85;99.29;101183.40;1771238;80;21104;-76
2021/09/06 00:23:07;;;;;;;5.45;2.30;;;;;;;3.88;99.39;101181.24;1759421;80;21560;-76
2021/09/06 00:25:36;;;;;;;7.45;2.90;;;;;;;3.88;99.30;101187.76;1762333;80;21193;-77
2021/09/06 00:28:04;;;;;;;4.10;2.50;;;;;;;3.86;99.34;101183.83;1757731;80;21372;-75
2021/09/06 00:30:32;;;;;;;6.87;2.98;;;;;;;3.84;99.18;101185.98;1766346;80;20999;-77
2021/09/06 00:33:00;;;;;;;7.47;3.30;;;;;;;3.80;99.07;101181.20;1764484;80;21137;-77
2021/09/06 00:35:29;;;;;;;5.35;2.40;;;;;;;3.75;99.09;101185.08;1771741;80;21093;-77
2021/09/06 00:37:57;;;;;;;7.03;3.20;;;;;;;3.74;99.01;101187.66;1770434;80;21058;-77
2021/09/06 00:40:24;;;;;;;4.42;2.58;;;;;;;3.74;99.59;101188.95;1761344;80;21078;-77
2021/09/06 00:42:52;;;;;;;6.33;2.90;;;;;;;3.71;99.44;101189.81;1769733;80;22205;-78
2021/09/06 00:46:51;;;;;;;4.30;2.60;;;;;;;3.71;99.52;101188.51;1796548;79;27480;-76
2021/09/06 00:49:21;;;;;;;5.72;2.22;;;;;;;3.64;99.50;101188.45;1756745;81;21136;-75
2021/09/06 00:51:47;;;;;;;6.33;2.67;;;;;;;3.62;99.63;101191.47;1756599;81;21517;-77
2021/09/06 00:54:14;;;;;;;5.25;3.05;;;;;;;3.61;99.65;101192.31;1696816;83;20989;-76
2021/09/06 00:56:44;;;;;;;5.25;2.75;;;;;;;3.61;99.87;101185.80;1724353;83;20973;-77
2021/09/06 00:59:13;;;;;;;6.30;2.92;;;;;;;3.60;99.85;101185.38;1695761;83;21084;-77
2021/09/06 01:01:40;;;;;;;8.03;3.25;;;;;;;3.58;99.77;101188.82;1694531;83;21001;-77
2021/09/06 01:04:10;;;;;;;9.70;2.72;;;;;;;3.57;99.90;101186.23;1723212;83;21158;-77
2021/09/06 01:06:47;;;;;;;7.33;2.95;;;;;;;3.56;99.86;101184.02;1677362;85;21054;-76
2021/09/06 01:09:22;;;;;;;8.43;3.22;;;;;;;3.56;99.81;101185.33;1705971;83;21010;-76
2021/09/06 01:11:51;;;;;;;4.80;2.55;;;;;;;3.55;99.80;101180.99;1700549;83;21651;-77
2021/09/06 01:14:19;;;;;;;10.58;3.70;;;;;;;3.50;99.70;101178.78;1709694;83;21117;-77
2021/09/06 01:16:45;;;;;;;6.50;2.90;;;;;;;3.49;99.76;101189.17;1710268;83;21114;-77
2021/09/06 01:19:12;;;;;;;11.68;2.85;;;;;;;3.47;99.97;101187.85;1710027;83;21643;-76
2021/09/06 01:21:39;;;;;;;5.90;3.10;;;;;;;3.47;100.00;101189.59;1710464;83;21042;-77
2021/09/06 01:24:07;;;;;;;8.55;2.60;;;;;;;3.47;100.00;101188.28;1705863;83;21045;-77
2021/09/06 01:26:35;;;;;;;8.05;2.70;;;;;;;3.43;99.90;101183.50;1710592;83;21588;-77
2021/09/06 01:29:02;;;;;;;4.60;2.72;;;;;;;3.40;99.76;101193.87;1710188;83;21114;-77
2021/09/06 01:31:32;;;;;;;5.00;2.33;;;;;;;3.40;100.00;101191.27;1684121;83;21053;-76
2021/09/06 01:33:59;;;;;;;3.20;2.10;;;;;;;3.39;100.00;101194.73;1710376;83;21623;-78
2021/09/06 01:36:27;;;;;;;4.45;2.40;;;;;;;3.40;100.00;101197.77;1672656;84;21654;-77
2021/09/06 01:38:55;;;;;;;5.10;2.20;;;;;;;3.39;100.00;101199.08;1697797;84;21061;-77
2021/09/06 01:41:23;;;;;;;4.03;2.20;;;;;;;3.38;100.00;101203.39;1697551;84;21643;-77
2021/09/06 01:43:52;;;;;;;3.83;2.30;;;;;;;3.37;100.00;101197.75;1697155;84;21084;-76
2021/09/06 01:46:21;;;;;;;3.92;2.37;;;;;;;3.36;100.00;101196.02;1699384;84;21095;-77
2021/09/06 01:48:48;;;;;;;7.67;2.62;;;;;;;3.35;100.00;101204.23;1700577;84;21147;-77
2021/09/06 01:51:15;;;;;;;4.85;2.70;;;;;;;3.35;100.00;101204.67;1700624;83;21117;-77
2021/09/06 01:53:42;;;;;;;8.15;3.10;;;;;;;3.31;100.00;101206.80;1720634;83;21571;-77
2021/09/06 01:56:09;;;;;;;4.97;2.50;;;;;;;3.28;100.00;101209.38;1691443;84;21635;-77
2021/09/06 01:58:38;;;;;;;4.65;2.12;;;;;;;3.25;100.00;101207.63;1661653;86;21095;-78
2021/09/06 02:01:07;;;;;;;4.80;2.50;;;;;;;3.24;100.00;101207.59;1691097;84;21092;-77
2021/09/06 02:03:38;;;;;;;4.60;2.50;;;;;;;3.25;100.00;101211.96;1691501;84;21056;-77
2021/09/06 02:06:06;;;;;;;3.70;2.40;;;;;;;3.26;100.00;101209.79;1691310;84;21114;-76
2021/09/06 02:08:34;;;;;;;3.62;2.25;;;;;;;3.27;100.00;101205.05;1689459;84;21104;-76
2021/09/06 02:11:03;;;;;;;8.55;2.55;;;;;;;3.26;100.00;101208.48;1691270;84;21099;-76
2021/09/06 02:13:32;;;;;;;4.17;2.35;;;;;;;3.24;100.00;101214.11;1665299;84;22169;-75
2021/09/06 02:16:00;;;;;;;4.25;2.37;;;;;;;3.22;100.00;101213.21;1691299;84;21119;-77
2021/09/06 02:18:28;;;;;;;3.98;2.40;;;;;;;3.21;100.00;101215.39;1691005;84;21283;-78
2021/09/06 02:20:58;;;;;;;5.83;2.60;;;;;;;3.22;100.00;101217.11;1691053;84;21568;-78
2021/09/06 02:23:25;;;;;;;5.53;2.50;;;;;;;3.21;100.00;101212.78;1691269;84;21682;-78
2021/09/06 02:25:53;;;;;;;4.97;2.75;;;;;;;3.15;100.00;101214.47;1690889;84;21493;-78
2021/09/06 02:28:21;;;;;;;4.58;2.67;;;;;;;3.12;100.00;101217.02;1691515;84;21658;-79
2021/09/06 02:30:49;;;;;;;6.25;2.87;;;;;;;3.10;100.00;101221.33;1691545;84;21101;-78
2021/09/06 02:33:17;;;;;;;5.47;2.75;;;;;;;3.09;100.00;101214.39;1690072;84;21599;-77
2021/09/06 02:35:59;;;;;;;4.95;2.65;;;;;;;3.09;100.00;101215.70;1651473;84;21055;-78
2021/09/06 02:38:25;;;;;;;6.17;2.67;;;;;;;3.09;100.00;101219.59;1691265;84;21056;-78
2021/09/06 02:40:51;;;;;;;5.78;2.77;;;;;;;3.06;100.00;101219.58;1690741;84;21209;-77
2021/09/06 02:43:18;;;;;;;6.75;2.85;;;;;;;3.05;100.00;101222.16;1691389;84;22145;-78
2021/09/06 02:45:45;;;;;;;5.80;2.90;;;;;;;3.03;100.00;101223.86;1691204;84;21053;-77
2021/09/06 02:48:11;;;;;;;4.17;2.20;;;;;;;3.03;100.00;101226.46;1690997;84;21055;-76
2021/09/06 02:50:38;;;;;;;3.80;2.50;;;;;;;3.04;100.00;101226.48;1691090;84;21642;-77
2021/09/06 02:53:06;;;;;;;6.15;2.50;;;;;;;3.05;100.00;101225.62;1691132;84;21068;-78
2021/09/06 02:55:33;;;;;;;4.75;2.80;;;;;;;3.05;100.00;101228.22;1691425;84;21498;-77
2021/09/06 02:57:59;;;;;;;5.45;2.35;;;;;;;3.07;100.00;101230.41;1691159;84;21581;-76
2021/09/06 03:00:27;;;;;;;4.45;2.45;;;;;;;3.12;100.00;101238.28;1696632;83;21088;-79
2021/09/06 03:02:54;;;;;;;5.97;2.55;;;;;;;3.14;100.00;101232.66;1693285;83;21044;-77
2021/09/06 03:05:21;;;;;;;5.47;2.47;;;;;;;3.15;100.00;101235.30;1720437;83;21076;-77
2021/09/06 03:07:50;;;;;;;4.70;2.85;;;;;;;3.22;100.00;101234.03;1720762;83;21532;-77
2021/09/06 03:10:18;;;;;;;5.30;2.90;;;;;;;3.25;100.00;101234.09;1721249;83;20982;-78
2021/09/06 03:12:44;;;;;;;6.78;3.02;;;;;;;3.26;100.00;101238.42;1721647;83;21005;-76
2021/09/06 03:15:11;;;;;;;4.30;2.50;;;;;;;3.26;100.00;101238.42;1723967;77;21001;-76
2021/09/06 03:17:38;;;;;;;10.98;2.92;;;;;;;3.29;100.00;101244.55;1724914;77;20891;-79
2021/09/06 03:20:07;;;;;;;12.68;3.47;;;;;;;3.35;100.00;101245.03;1723173;83;21176;-76
2021/09/06 03:22:35;;;;;;;8.65;2.98;;;;;;;3.38;100.00;101247.66;1696315;83;21084;-79
2021/09/06 03:25:01;;;;;;;10.20;3.42;;;;;;;3.41;100.00;101249.02;1692581;84;21103;-77
2021/09/06 03:27:30;;;;;;;11.03;2.47;;;;;;;3.44;100.00;101252.94;1691866;84;21548;-78
2021/09/06 03:29:57;;;;;;;17.62;3.40;;;;;;;3.50;100.00;101251.71;1691995;84;21036;-78
2021/09/06 03:32:24;;;;;;;6.30;2.50;;;;;;;3.57;100.00;101252.21;1692597;84;21631;-77
2021/09/06 03:34:51;;;;;;;9.20;3.42;;;;;;;3.61;100.00;101248.32;1720804;83;21056;-78
2021/09/06 03:37:18;;;;;;;15.85;3.52;;;;;;;3.67;100.00;101252.30;1721234;83;21021;-77
2021/09/06 03:39:44;;;;;;;14.03;3.37;;;;;;;3.73;100.00;101253.66;1691476;84;21017;-77
2021/09/06 03:42:11;;;;;;;13.43;2.70;;;;;;;3.81;100.00;101249.81;1691135;84;21124;-76
2021/09/06 03:44:40;;;;;;;6.58;2.45;;;;;;;3.85;100.00;101257.67;1691186;84;21195;-78
2021/09/06 03:47:07;;;;;;;8.15;2.20;;;;;;;3.86;100.00;101255.93;1691074;84;21087;-78
2021/09/06 03:49:34;;;;;;;4.25;2.33;;;;;;;3.87;100.00;101255.95;1691013;84;21531;-78
2021/09/06 03:52:01;;;;;;;6.10;2.20;;;;;;;3.92;100.00;101262.07;1691132;84;21639;-77
2021/09/06 03:54:28;;;;;;;5.33;2.42;;;;;;;3.97;100.00;101262.97;1690439;84;21044;-79
2021/09/06 03:56:55;;;;;;;7.72;2.83;;;;;;;4.06;100.00;101256.10;1701331;84;21149;-78
2021/09/06 03:59:22;;;;;;;6.97;2.90;;;;;;;4.14;100.00;101257.91;1701476;84;21085;-77
2021/09/06 04:01:51;;;;;;;5.95;2.62;;;;;;;4.23;100.00;101266.64;1719836;83;21129;-78
2021/09/06 04:04:19;;;;;;;10.05;2.90;;;;;;;4.33;100.00;101268.47;1691156;84;21055;-78
2021/09/06 04:06:49;;;;;;;9.95;2.75;;;;;;;4.43;100.00;101268.09;1691156;84;21072;-77
2021/09/06 04:09:21;;;;;;;3.77;2.25;;;;;;;4.51;100.00;101265.98;1691179;84;21084;-79
2021/09/06 04:11:48;;;;;;;9.85;2.70;;;;;;;4.63;100.00;101273.00;1691136;84;21031;-79
2021/09/06 04:14:16;;;;;;;10.20;2.45;;;;;;;4.73;100.00;101272.17;1691083;84;21043;-78
2021/09/06 04:16:46;;;;;;;9.90;2.15;;;;;;;4.84;100.00;101278.32;1691259;84;21080;-78
2021/09/06 04:19:13;;;;;;;4.30;2.08;;;;;;;4.96;100.00;101276.64;1691165;84;21826;-79
2021/09/06 04:21:41;;;;;;;4.58;2.30;;;;;;;5.07;100.00;101276.25;1691018;84;21212;-78
2021/09/06 04:24:07;;;;;;;3.95;2.20;;;;;;;5.19;100.00;101276.28;1691228;84;21052;-77
2021/09/06 04:26:34;;;;;;;7.85;2.12;;;;;;;5.30;100.00;101274.16;1691170;84;21599;-78
2021/09/06 04:29:02;;;;;;;4.35;2.20;;;;;;;5.42;100.00;101278.97;1691059;84;21126;-80
2021/09/06 04:31:29;;;;;;;7.33;2.45;;;;;;;5.56;100.00;101281.61;1691322;84;21080;-79
2021/09/06 04:33:56;;;;;;;8.65;2.83;;;;;;;5.72;100.00;101272.50;1691004;84;21119;-77
2021/09/06 04:36:24;;;;;;;8.58;2.17;;;;;;;5.87;100.00;101280.36;1691362;84;21064;-79
2021/09/06 04:38:50;;;;;;;3.33;2.10;;;;;;;6.03;100.00;101279.53;1691529;84;22069;-77
2021/09/06 04:41:17;;;;;;;6.67;2.37;;;;;;;6.21;99.98;101280.38;1691215;84;21114;-77
2021/09/06 04:43:47;;;;;;;11.68;2.45;;;;;;;6.39;100.00;101276.43;1691365;84;21068;-78
2021/09/06 04:46:12;;;;;;;7.80;2.30;;;;;;;6.67;100.00;101278.99;1690946;83;21965;-77
2021/09/06 04:48:39;;;;;;;3.55;2.22;;;;;;;6.93;99.64;101270.63;1690929;84;21025;-78
2021/09/06 04:51:06;;;;;;;7.87;2.75;;;;;;;7.12;98.74;101271.86;1691325;84;21060;-78
2021/09/06 04:53:34;;;;;;;7.22;2.47;;;;;;;7.29;97.81;101276.59;1690976;84;21157;-79
2021/09/06 04:56:02;;;;;;;5.75;2.15;;;;;;;7.45;97.65;101273.87;1666987;84;21134;-78
2021/09/06 04:58:30;;;;;;;6.30;2.35;;;;;;;7.62;97.07;101272.02;1662613;86;21263;-76
2021/09/06 05:00:57;;;;;;;3.62;2.27;;;;;;;7.90;96.52;101273.14;1665243;84;21067;-80
2021/09/06 05:03:23;;;;;;;7.03;2.52;;;;;;;8.18;95.11;101266.77;1690984;84;21098;-79
2021/09/06 05:05:50;;;;;;;8.13;1.92;;;;;;;8.55;94.00;101272.14;1658204;86;21101;-78
2021/09/06 05:08:18;;;;;;;8.20;2.15;;;;;;;8.98;93.14;101267.27;1668927;86;21092;-77
2021/09/06 05:10:44;;;;;;;6.83;2.35;;;;;;;9.42;91.72;101262.31;1669024;86;21157;-78
2021/09/06 05:13:14;;;;;;;4.62;2.27;;;;;;;9.78;89.21;101260.91;1668505;86;21533;-79
2021/09/06 05:15:41;;;;;;;3.92;2.40;;;;;;;10.26;88.04;101259.67;1641464;86;21112;-78
2021/09/06 05:18:10;;;;;;;6.12;3.37;;;;;;;10.83;86.83;101273.10;1668674;86;21066;-79
2021/09/06 05:20:39;;;;;;;10.72;3.27;;;;;;;11.25;84.15;101268.29;1669022;85;21053;-78
2021/09/06 05:23:07;;;;;;;4.72;2.60;;;;;;;11.65;82.69;101263.45;1668657;86;21460;-78
2021/09/06 05:25:36;;;;;;;7.80;3.30;;;;;;;12.08;81.15;101262.45;1641795;86;21686;-77
2021/09/06 05:28:04;;;;;;;6.50;3.17;;;;;;;12.52;78.90;101263.07;1641932;86;21092;-78
2021/09/06 05:30:33;;;;;;;7.67;3.40;;;;;;;12.82;77.57;101260.48;1669674;86;21072;-79
2021/09/06 05:33:01;;;;;;;14.23;4.05;;;;;;;13.08;75.30;101255.30;1668952;86;21133;-77
2021/09/06 05:35:28;;;;;;;5.10;2.85;;;;;;;13.31;74.32;101252.00;1669384;86;21115;-78
2021/09/06 05:37:55;;;;;;;5.22;3.60;;;;;;;13.51;72.71;101250.53;1668724;86;21096;-77
2021/09/06 05:40:23;;;;;;;6.97;2.70;;;;;;;13.70;71.46;101247.70;1666725;86;21148;-77
2021/09/06 05:42:51;;;;;;;5.25;3.15;;;;;;;13.84;70.65;101251.22;1669632;85;21080;-77
2021/09/06 05:45:20;;;;;;;5.30;2.85;;;;;;;14.03;69.91;101251.47;1671023;86;21050;-78
2021/09/06 05:47:52;;;;;;;6.05;2.87;;;;;;;14.26;68.17;101244.95;1671967;85;21594;-78
2021/09/06 05:50:19;;;;;;;6.53;3.08;;;;;;;14.37;67.66;101249.86;1687138;85;21087;-77
2021/09/06 05:52:48;;;;;;;5.25;2.75;;;;;;;14.47;66.38;101255.73;1687092;84;21098;-77
2021/09/06 05:55:16;;;;;;;4.53;2.42;;;;;;;14.50;66.69;101258.26;1669685;85;21518;-77
2021/09/06 05:57:43;;;;;;;5.20;3.25;;;;;;;14.52;66.30;101255.56;1697028;84;21065;-77
2021/09/06 06:00:11;;;;;;;10.10;3.33;;;;;;;14.57;66.21;101257.62;1696749;84;22050;-78
2021/09/06 06:02:40;;;;;;;8.00;3.37;;;;;;;14.55;65.98;101258.98;1696769;84;21085;-78
2021/09/06 06:05:11;;;;;;;13.38;4.65;;;;;;;14.43;66.31;101258.93;1697386;84;22739;-78
2021/09/06 06:07:38;;;;;;;5.83;3.45;;;;;;;14.40;67.16;101259.05;1696870;84;21014;-77
2021/09/06 06:10:07;;;;;;;6.28;3.25;;;;;;;14.37;66.91;101259.13;1697010;84;21683;-79
2021/09/06 06:12:35;;;;;;;7.50;2.60;;;;;;;14.37;66.65;101255.16;1696849;84;21528;-78
2021/09/06 06:15:02;;;;;;;5.67;2.50;;;;;;;14.35;65.64;101266.27;1697019;84;21164;-78
2021/09/06 06:17:29;;;;;;;3.67;2.40;;;;;;;14.34;65.33;101267.20;1668897;84;21572;-77
2021/09/06 06:19:55;;;;;;;3.47;2.30;;;;;;;14.29;65.28;101267.83;1697241;84;21073;-78
2021/09/06 06:22:26;;;;;;;5.12;2.62;;;;;;;14.35;65.91;101273.36;1692752;84;21042;-80
2021/09/06 06:24:55;;;;;;;5.10;2.58;;;;;;;14.45;65.32;101272.14;1689030;84;21164;-78
2021/09/06 06:27:29;;;;;;;6.05;2.52;;;;;;;14.63;64.97;101276.82;1670223;84;21572;-78
2021/09/06 06:29:58;;;;;;;6.72;3.08;;;;;;;14.82;63.60;101277.02;1696839;84;21065;-78
2021/09/06 06:32:25;;;;;;;7.17;2.30;;;;;;;14.94;62.51;101285.45;1696856;84;21205;-78
2021/09/06 06:34:55;;;;;;;6.30;2.80;;;;;;;15.06;62.32;101282.33;1691364;84;21092;-77
2021/09/06 06:37:22;;;;;;;7.83;2.60;;;;;;;15.26;61.03;101282.45;1669218;84;21140;-77
2021/09/06 06:39:49;;;;;;;5.30;2.65;;;;;;;15.45;59.60;101287.05;1696853;84;21635;-80
2021/09/06 06:42:16;;;;;;;5.03;2.80;;;;;;;15.59;56.52;101285.18;1692380;84;21049;-79
2021/09/06 06:44:45;;;;;;;5.53;2.72;;;;;;;15.72;56.59;101285.13;1696742;84;21104;-78
2021/09/06 06:47:13;;;;;;;6.12;2.70;;;;;;;15.83;56.77;101282.05;1696958;83;21057;-78
2021/09/06 06:49:40;;;;;;;6.58;2.80;;;;;;;15.90;56.41;101278.22;1697222;84;22099;-78
2021/09/06 06:52:08;;;;;;;6.65;2.90;;;;;;;15.93;55.60;101284.25;1697204;84;21085;-78
2021/09/06 06:54:36;;;;;;;5.25;2.80;;;;;;;15.94;56.01;101283.78;1693161;84;21089;-79
2021/09/06 06:57:06;;;;;;;6.85;2.92;;;;;;;15.90;55.14;101294.16;1668956;86;21030;-76
2021/09/06 06:59:33;;;;;;;10.30;3.12;;;;;;;15.87;55.36;101295.15;1669282;85;21156;-78
2021/09/06 07:02:00;;;;;;;8.15;3.00;;;;;;;15.84;55.21;101293.07;1670315;86;21479;-78
2021/09/06 07:04:28;;;;;;;8.93;2.50;;;;;;;15.85;54.51;101289.47;1682112;84;21487;-77
2021/09/06 07:06:56;;;;;;;10.28;2.77;;;;;;;15.83;54.03;101295.34;1699011;84;21065;-77
2021/09/06 07:09:22;;;;;;;9.33;3.08;;;;;;;15.81;53.92;101299.84;1697867;84;21065;-77
2021/09/06 07:11:50;;;;;;;7.15;2.77;;;;;;;15.83;54.43;101303.30;1697944;84;21492;-77
2021/09/06 07:14:18;;;;;;;10.58;2.80;;;;;;;15.90;54.85;101303.45;1697163;84;21081;-78
2021/09/06 07:16:45;;;;;;;11.03;3.02;;;;;;;15.97;54.54;101303.60;1697100;84;21065;-78
2021/09/06 07:19:15;;;;;;;10.98;3.08;;;;;;;16.07;54.15;101300.09;1697287;84;21105;-77
2021/09/06 07:21:41;;;;;;;10.30;2.92;;;;;;;16.06;53.94;101310.34;1697345;84;21101;-78
2021/09/06 07:24:08;;;;;;;5.12;2.60;;;;;;;16.10;53.57;101314.58;1697159;84;21097;-78
2021/09/06 07:26:36;;;;;;;7.65;3.20;;;;;;;16.17;53.78;101312.06;1697381;84;21463;-77
2021/09/06 07:29:08;;;;;;;;;;;;;;;16.22;52.40;101305.22;1672482;84;21045;-77
2021/09/06 07:31:38;;;;;;;5.78;3.10;;;;;;;16.26;52.51;101309.48;1696790;84;20604;-77
2021/09/06 07:34:08;;;;;;;8.05;3.50;;;;;;;16.26;52.92;101312.15;1697409;84;21057;-78
2021/09/06 07:36:38;;;;;;;5.30;2.50;;;;;;;16.26;52.36;101309.48;1670641;84;21069;-78
2021/09/06 07:39:07;;;;;;;6.42;2.77;;;;;;;16.24;53.29;101314.89;1698513;84;22032;-77
2021/09/06 07:41:42;;;;;;;6.42;3.12;;;;;;;16.17;52.38;101313.39;1697948;84;21065;-78
2021/09/06 07:44:11;;;;;;;6.95;2.83;;;;;;;16.10;52.78;101318.13;1698670;84;21124;-78
2021/09/06 07:46:39;;;;;;;9.30;3.05;;;;;;;16.05;50.75;101316.09;1701533;79;21120;-79
2021/09/06 07:49:08;;;;;;;8.15;3.27;;;;;;;15.94;50.23;101314.33;1698580;83;21502;-77
2021/09/06 07:51:34;;;;;;;7.33;3.40;;;;;;;15.89;50.36;101316.32;1697763;84;21467;-78
2021/09/06 07:54:04;;;;;;;8.23;3.50;;;;;;;15.82;51.20;101321.48;1697144;84;21381;-77
2021/09/06 07:56:34;;;;;;;8.53;4.80;;;;;;;15.79;51.21;101328.25;1697846;84;21643;-78
2021/09/06 07:59:02;;;;;;;9.53;3.40;;;;;;;15.75;51.83;101317.34;1696915;84;21072;-78
2021/09/06 08:01:31;;;;;;;10.38;3.60;;;;;;;15.78;51.63;101322.08;1697285;84;21553;-78
2021/09/06 08:03:57;;;;;;;7.97;3.00;;;;;;;15.89;51.37;101318.98;1697341;84;21470;-76
2021/09/06 08:06:25;;;;;;;7.97;3.08;;;;;;;16.00;51.98;101317.22;1697163;84;21073;-80
2021/09/06 08:08:52;;;;;;;11.68;3.80;;;;;;;16.10;48.82;101323.44;1670891;84;21165;-78
2021/09/06 08:11:22;;;;;;;6.70;3.08;;;;;;;16.19;50.25;101317.33;1698355;84;21065;-78
2021/09/06 08:13:50;;;;;;;4.85;2.30;;;;;;;16.33;49.85;101318.50;1697200;84;21576;-78
2021/09/06 08:16:17;;;;;;;7.53;2.10;;;;;;;16.46;47.94;101317.97;1697088;84;21144;-77
2021/09/06 08:18:45;;;;;;;6.10;2.35;;;;;;;16.47;49.21;101323.22;1696853;84;21025;-78
2021/09/06 08:21:11;;;;;;;10.55;2.98;;;;;;;16.50;48.45;101320.42;1696953;84;21644;-78
2021/09/06 08:23:38;;;;;;;7.08;2.83;;;;;;;16.54;48.41;101314.49;1696910;84;21096;-78
2021/09/06 08:26:07;;;;;;;10.28;2.90;;;;;;;16.60;48.55;101321.36;1697152;84;21038;-77
2021/09/06 08:28:35;;;;;;;6.40;2.52;;;;;;;16.67;47.67;101318.36;1697103;84;21144;-79
2021/09/06 08:31:04;;;;;;;4.87;2.58;;;;;;;16.83;48.94;101321.25;1697015;84;21054;-77
2021/09/06 08:33:30;;;;;;;4.65;2.55;;;;;;;17.09;48.74;101319.21;1669117;84;21548;-76
2021/09/06 08:35:59;;;;;;;6.45;2.55;;;;;;;17.37;47.66;101315.70;1696923;84;21065;-77
2021/09/06 08:38:28;;;;;;;6.58;2.55;;;;;;;17.63;47.58;101317.59;1697106;84;21561;-78
2021/09/06 08:40:57;;;;;;;5.25;2.50;;;;;;;17.88;46.19;101305.33;1696726;84;21788;-78
2021/09/06 08:43:23;;;;;;;8.88;3.02;;;;;;;18.16;46.65;101311.48;1696753;84;21085;-78
2021/09/06 08:45:51;;;;;;;5.70;2.10;;;;;;;18.49;44.90;101301.37;1668819;84;21145;-77
2021/09/06 08:48:17;;;;;;;8.05;2.00;;;;;;;18.73;42.58;101310.39;1696898;83;21073;-76
2021/09/06 08:50:44;;;;;;;3.40;1.72;;;;;;;18.95;41.46;101310.99;1696767;84;21078;-78
2021/09/06 08:53:11;;;;;;;3.10;1.98;;;;;;;19.03;40.12;101305.27;1696883;84;21089;-77
2021/09/06 08:55:39;;;;;;;5.90;2.20;;;;;;;18.94;40.78;101303.95;1696772;84;21618;-78
2021/09/06 08:58:07;;;;;;;4.72;2.10;;;;;;;18.86;40.10;101306.15;1668910;84;21046;-78
2021/09/06 09:00:34;;;;;;;8.25;2.20;;;;;;;18.84;38.93;101305.36;1696737;84;21064;-79
2021/09/06 09:03:11;;;;;;;2.72;1.30;;;;;;;18.89;38.84;101307.34;1689410;84;21074;-78
2021/09/06 09:06:01;;;;;;;3.02;1.65;;;;;;;19.01;37.81;101313.34;1695411;84;21802;-78
2021/09/06 09:08:47;;;;;;;1.90;1.22;;;;;;;19.21;36.13;101311.39;1697057;84;21576;-77
2021/09/06 09:11:22;;;;;;;1.92;1.30;;;;;;;19.38;33.49;101308.67;1694757;84;21100;-78
2021/09/06 09:13:53;;;;;;;3.35;1.40;;;;;;;19.46;34.57;101303.78;1693383;84;21093;-79
2021/09/06 09:16:29;;;;;;;3.27;1.70;;;;;;;19.60;33.88;101308.80;1697114;84;21312;-79
2021/09/06 09:19:14;;;;;;;3.55;1.75;;;;;;;19.75;34.61;101303.97;1697042;84;21096;-79
2021/09/06 09:22:02;;;;;;;2.70;1.62;;;;;;;20.03;35.19;101302.39;1694012;84;21069;-79
2021/09/06 09:24:38;;;;;;;2.75;1.52;;;;;;;20.31;32.60;101298.50;1694446;84;21144;-78
2021/09/06 09:27:32;;;;;;;4.92;1.72;;;;;;;20.84;31.10;101296.70;1695539;84;21579;-79
2021/09/06 09:30:01;;;;;;;3.42;1.57;;;;;;;21.09;32.19;101288.86;1697106;84;21151;-78
2021/09/06 09:32:33;;;;;;;2.20;1.40;;;;;;;21.25;30.26;101295.94;1697112;84;21503;-77
2021/09/06 09:35:06;;;;;;;9.43;2.05;;;;;;;21.06;30.83;101291.73;1696890;84;21571;-79
2021/09/06 09:37:41;;;;;;;4.30;1.22;;;;;;;20.76;28.47;101286.95;1696954;84;21137;-78
2021/09/06 09:40:12;;;;;;;2.75;1.20;;;;;;;20.35;29.44;101297.82;1697330;84;21073;-78
2021/09/06 09:42:49;;;;;;;6.70;1.27;;;;;;;20.24;29.97;101294.44;1697410;84;21647;-79
2021/09/06 09:45:25;;;;;;;1.80;1.00;;;;;;;20.16;29.66;101296.72;1698264;84;21111;-77
2021/09/06 09:47:54;;;;;;;5.37;1.42;;;;;;;19.93;28.97;101298.54;1691994;83;21137;-79
2021/09/06 09:50:25;;;;;;;3.10;1.00;;;;;;;19.69;31.29;101305.65;1686861;85;21133;-78
2021/09/06 09:52:53;;;;;;;5.20;1.80;;;;;;;19.36;28.56;101307.04;1687022;85;21101;-79
2021/09/06 09:55:24;;;;;;;5.22;2.02;;;;;;;19.04;31.59;101307.83;1673944;85;21631;-79
2021/09/06 09:57:52;;;;;;;3.62;1.27;;;;;;;18.85;32.92;101308.44;1659130;85;21129;-78
2021/09/06 10:00:20;;;;;;;10.43;1.40;;;;;;;18.72;32.51;101307.32;1658754;85;21081;-78
2021/09/06 10:03:01;;;;;;;15.90;1.65;;;;;;;18.45;34.89;101311.83;1658915;85;21114;-78
2021/09/06 10:05:32;;;;;;;16.25;3.77;;;;;;;18.25;34.06;101302.16;1658698;86;21081;-79
2021/09/06 10:08:02;;;;;;;;;;;;;;;18.04;34.46;101316.09;1661301;85;21706;-78
2021/09/06 10:10:39;;;;;;;7.50;1.77;;;;;;;17.90;36.63;101306.56;1658582;86;20228;-79
2021/09/06 10:13:12;;;;;;;12.28;1.90;;;;;;;17.89;35.33;101306.18;1658670;86;21022;-78
2021/09/06 10:15:42;;;;;;;4.50;1.07;;;;;;;18.11;34.36;101302.00;1658733;85;21160;-79
2021/09/06 10:18:21;;;;;;;3.67;1.20;;;;;;;18.47;33.45;101304.58;1659067;85;21050;-77
2021/09/06 10:20:53;;;;;;;2.20;0.90;;;;;;;19.07;31.70;101305.02;1658383;85;21077;-79
2021/09/06 10:23:21;;;;;;;2.05;1.20;;;;;;;19.85;29.75;101299.84;1659383;86;21165;-78
2021/09/06 10:25:49;;;;;;;1.20;0.85;;;;;;;20.40;28.53;101292.20;1658865;86;21568;-76
2021/09/06 10:28:17;;;;;;;1.98;1.20;;;;;;;20.80;25.12;101289.80;1666057;85;21137;-77
2021/09/06 10:30:53;;;;;;;1.62;1.00;;;;;;;21.08;27.70;101291.65;1686997;85;21020;-78
2021/09/06 10:33:35;;;;;;;3.77;1.40;;;;;;;21.21;27.30;101281.01;1688516;85;21125;-78
2021/09/06 10:36:19;;;;;;;6.53;1.60;;;;;;;21.13;26.62;101291.73;1686755;85;21497;-78
2021/09/06 10:38:53;;;;;;;1.77;1.00;;;;;;;21.05;26.09;101291.82;1686863;85;21101;-77
2021/09/06 10:41:23;;;;;;;2.00;1.00;;;;;;;21.04;24.94;101293.64;1665672;85;21126;-78
2021/09/06 10:44:00;;;;;;;1.65;1.10;;;;;;;20.91;24.00;101302.05;1686779;85;21501;-78
2021/09/06 10:46:29;;;;;;;2.37;0.90;;;;;;;20.69;26.27;101299.37;1686702;85;21161;-78
2021/09/06 10:49:04;;;;;;;5.30;1.00;;;;;;;20.58;24.65;101300.49;1691138;83;21108;-77
2021/09/06 10:51:34;;;;;;;2.35;0.90;;;;;;;20.54;25.12;101297.58;1696810;84;21062;-78
2021/09/06 10:54:08;;;;;;;3.47;1.15;;;;;;;20.46;25.82;101297.19;1697371;84;21041;-78
2021/09/06 10:56:35;;;;;;;16.30;1.85;;;;;;;20.62;24.40;101298.02;1669925;84;21085;-77
2021/09/06 10:59:08;;;;;;;2.75;0.95;;;;;;;20.96;24.68;101293.28;1668911;86;21594;-79
2021/09/06 11:01:37;;;;;;;5.20;1.20;;;;;;;21.27;24.84;101288.66;1669302;86;21842;-77
2021/09/06 11:04:04;;;;;;;3.55;1.10;;;;;;;21.61;23.78;101283.86;1669120;86;21633;-79
2021/09/06 11:06:31;;;;;;;2.58;1.00;;;;;;;21.94;24.57;101286.12;1668758;86;21132;-78
2021/09/06 11:09:00;;;;;;;6.60;1.10;;;;;;;22.13;22.22;101273.22;1669069;86;21090;-78
2021/09/06 11:11:31;;;;;;;1.67;1.10;;;;;;;22.41;22.26;101269.54;1668824;86;21525;-78
2021/09/06 11:14:01;;;;;;;2.42;0.80;;;;;;;22.61;22.84;101269.97;1642883;86;21706;-77
2021/09/06 11:16:40;;;;;;;1.00;0.70;;;;;;;22.90;21.62;101271.11;1669152;86;21092;-77
2021/09/06 11:19:14;;;;;;;3.12;0.95;;;;;;;22.94;20.64;101261.39;1670251;86;21116;-79
2021/09/06 11:21:42;;;;;;;1.90;0.75;;;;;;;22.72;21.73;101255.31;1669458;86;21603;-76
2021/09/06 11:24:11;;;;;;;2.65;0.90;;;;;;;22.59;22.09;101265.19;1669819;86;21141;-79
2021/09/06 11:26:42;;;;;;;1.32;0.78;;;;;;;22.54;22.97;101268.69;1669187;86;21057;-78
2021/09/06 11:29:09;;;;;;;1.57;0.78;;;;;;;22.34;21.81;101268.73;1669550;86;21018;-79
2021/09/06 11:31:37;;;;;;;1.67;0.70;;;;;;;22.03;21.71;101267.23;1668883;86;21092;-78
2021/09/06 11:34:05;;;;;;;3.33;0.62;;;;;;;21.58;23.20;101267.02;1669216;86;21074;-77
2021/09/06 11:36:33;;;;;;;2.25;0.70;;;;;;;21.13;22.20;101267.63;1668742;86;21113;-77